createdAt,value
2023-01-13T00:01:00.248Z,15.40
2023-01-13T00:03:27.344Z,16.58
2023-01-13T00:05:54.406Z,15.07
2023-01-13T00:08:21.475Z,17.17
2023-01-13T00:10:48.617Z,16.30
2023-01-13T00:13:15.742Z,15.30
2023-01-13T00:15:43.144Z,14.45
2023-01-13T00:18:10.318Z,15.80
2023-01-13T00:20:37.442Z,16.40
2023-01-13T00:23:04.536Z,14.68
2023-01-13T00:25:31.588Z,15.40
2023-01-13T00:27:58.640Z,14.90
2023-01-13T00:30:25.746Z,14.63
2023-01-13T00:32:54.004Z,15.85
2023-01-13T00:35:21.062Z,14.68
2023-01-13T00:37:48.109Z,16.55
2023-01-13T00:40:15.181Z,13.98
2023-01-13T00:43:00.667Z,13.85
2023-01-13T00:45:27.726Z,15.25
2023-01-13T00:47:54.793Z,15.43
2023-01-13T01:02:28.968Z,15.23
2023-01-13T01:04:56.043Z,13.45
2023-01-13T01:07:23.172Z,13.05
2023-01-13T01:09:50.225Z,14.40
2023-01-13T01:12:17.275Z,15.20
2023-01-13T01:14:44.385Z,15.30
2023-01-13T01:17:11.464Z,13.73
2023-01-13T01:19:38.787Z,13.57
2023-01-13T01:22:06.541Z,12.73
2023-01-13T01:24:33.658Z,14.07
2023-01-13T01:27:00.822Z,13.57
2023-01-13T01:29:27.894Z,13.45
2023-01-13T01:31:57.745Z,13.90
2023-01-13T01:34:24.926Z,13.32
2023-01-13T01:36:52.019Z,14.15
2023-01-13T01:39:19.164Z,13.15
2023-01-13T01:42:06.282Z,14.32
2023-01-13T01:44:42.284Z,13.07
2023-01-13T01:47:12.542Z,14.07
2023-01-13T01:49:41.116Z,13.70
2023-01-13T01:52:14.919Z,14.68
2023-01-13T01:57:32.732Z,11.90
2023-01-13T02:00:01.073Z,13.35
2023-01-13T02:02:30.513Z,12.93
2023-01-13T02:04:59.129Z,13.18
2023-01-13T02:07:30.577Z,13.07
2023-01-13T02:10:01.097Z,12.27
2023-01-13T02:12:32.333Z,11.85
2023-01-13T02:15:09.860Z,11.38
2023-01-13T02:17:55.480Z,12.27
2023-01-13T02:20:44.622Z,13.10
2023-01-13T02:24:05.636Z,12.90
2023-01-13T02:27:06.586Z,12.55
2023-01-13T02:30:07.885Z,11.98
2023-01-13T02:32:51.593Z,12.02
2023-01-13T02:35:33.489Z,12.57
2023-01-13T02:38:02.198Z,11.20
2023-01-13T02:40:39.196Z,11.15
2023-01-13T02:43:46.578Z,11.27
2023-01-13T02:46:22.502Z,12.25
2023-01-13T02:48:52.787Z,12.13
2023-01-13T02:51:25.216Z,12.90
2023-01-13T02:53:59.661Z,13.52
2023-01-13T02:56:27.894Z,11.77
2023-01-13T02:58:57.622Z,13.32
2023-01-13T03:01:25.436Z,13.50
2023-01-13T03:03:52.686Z,12.63
2023-01-13T03:06:39.493Z,12.65
2023-01-13T03:09:22.383Z,11.93
2023-01-13T03:12:17.816Z,12.20
2023-01-13T03:14:58.516Z,12.80
2023-01-13T03:17:41.620Z,13.27
2023-01-13T03:20:18.128Z,12.80
2023-01-13T03:22:55.525Z,12.85
2023-01-13T03:25:40.562Z,13.30
2023-01-13T03:28:23.362Z,13.18
2023-01-13T03:30:55.788Z,11.52
2023-01-13T03:33:31.376Z,11.60
2023-01-13T03:36:05.632Z,11.77
2023-01-13T03:38:40.971Z,11.43
2023-01-13T03:41:21.581Z,11.70
2023-01-13T03:44:24.256Z,10.82
2023-01-13T03:47:04.065Z,12.10
2023-01-13T03:49:41.378Z,11.88
2023-01-13T03:52:13.534Z,14.45
2023-01-13T03:54:47.959Z,12.55
2023-01-13T03:57:18.804Z,12.77
2023-01-13T03:59:50.648Z,12.40
2023-01-13T04:02:51.757Z,13.07
2023-01-13T04:05:19.300Z,12.88
2023-01-13T04:07:55.668Z,15.73
2023-01-13T04:10:31.344Z,13.77
2023-01-13T04:13:05.130Z,12.50
2023-01-13T04:18:21.833Z,19.88
2023-01-13T04:20:51.147Z,17.60
2023-01-13T04:23:19.120Z,20.15
2023-01-13T04:25:47.033Z,16.40
2023-01-13T04:28:15.115Z,19.13
2023-01-13T04:30:42.924Z,15.23
2023-01-13T04:33:10.447Z,16.10
2023-01-13T04:35:38.067Z,16.17
2023-01-13T04:38:11.531Z,15.40
2023-01-13T04:40:39.585Z,13.55
2023-01-13T04:43:06.719Z,13.98
2023-01-13T04:45:34.638Z,15.07
2023-01-13T04:48:01.861Z,14.75
2023-01-13T04:50:29.023Z,14.93
2023-01-13T04:52:56.568Z,14.57
2023-01-13T04:55:25.958Z,16.85
2023-01-13T04:57:53.661Z,14.20
2023-01-13T05:00:22.812Z,14.48
2023-01-13T05:02:51.273Z,14.10
2023-01-13T05:05:18.620Z,14.45
2023-01-13T05:07:46.067Z,13.82
2023-01-13T05:10:13.227Z,13.82
2023-01-13T05:12:59.716Z,14.23
2023-01-13T05:15:45.725Z,13.13
2023-01-13T05:18:13.072Z,13.35
2023-01-13T05:20:40.201Z,13.20
2023-01-13T05:23:26.219Z,13.77
2023-01-13T05:25:53.365Z,14.52
2023-01-13T05:28:20.472Z,13.88
2023-01-13T05:30:49.415Z,14.63
2023-01-13T05:33:20.250Z,13.80
2023-01-13T05:35:47.873Z,13.50
2023-01-13T05:38:15.635Z,12.63
2023-01-13T05:41:08.959Z,13.95
2023-01-13T05:43:36.669Z,13.18
2023-01-13T05:46:07.274Z,13.25
2023-01-13T05:48:39.732Z,12.57
2023-01-13T05:51:08.567Z,12.95
2023-01-13T05:53:35.678Z,12.48
2023-01-13T05:56:07.456Z,12.55
2023-01-13T05:58:34.871Z,12.25
2023-01-13T06:01:07.500Z,11.65
2023-01-13T06:03:34.768Z,12.32
2023-01-13T06:06:03.901Z,13.05
2023-01-13T06:08:32.085Z,12.52
2023-01-13T06:10:59.298Z,11.70
2023-01-13T06:13:26.592Z,11.35
2023-01-13T06:15:58.268Z,13.18
2023-01-13T06:18:26.335Z,11.95
2023-01-13T06:20:53.576Z,13.45
2023-01-13T06:23:20.672Z,12.15
2023-01-13T06:25:56.684Z,13.75
2023-01-13T06:28:24.112Z,12.20
2023-01-13T06:30:55.982Z,13.50
2023-01-13T06:33:30.176Z,12.73
2023-01-13T06:36:01.716Z,12.48
2023-01-13T06:38:33.751Z,13.80
2023-01-13T06:41:00.858Z,12.43
2023-01-13T06:43:27.986Z,13.63
2023-01-13T06:45:56.415Z,13.63
2023-01-13T06:48:27.829Z,15.05
2023-01-13T06:50:54.964Z,12.55
2023-01-13T06:53:22.032Z,15.88
2023-01-13T06:55:49.147Z,13.38
2023-01-13T06:58:16.587Z,14.00
2023-01-13T07:00:43.853Z,15.07
2023-01-13T07:03:13.401Z,15.23
2023-01-13T07:05:42.311Z,15.32
2023-01-13T07:08:09.992Z,16.20
2023-01-13T07:10:37.716Z,14.90
2023-01-13T07:13:24.605Z,14.18
2023-01-13T07:16:02.442Z,14.75
2023-01-13T07:18:32.120Z,15.68
2023-01-13T07:21:04.778Z,16.58
2023-01-13T07:23:34.535Z,14.95
2023-01-13T07:26:02.183Z,14.32
2023-01-13T07:28:30.610Z,15.55
2023-01-13T07:30:58.492Z,13.57
2023-01-13T07:33:25.582Z,14.43
2023-01-13T07:35:57.852Z,13.93
2023-01-13T07:38:25.562Z,13.68
2023-01-13T07:40:52.775Z,13.98
2023-01-13T07:43:32.201Z,15.20
2023-01-13T07:46:04.931Z,14.48
2023-01-13T07:48:34.245Z,14.90
2023-01-13T07:51:03.212Z,14.55
2023-01-13T07:53:30.413Z,13.77
2023-01-13T07:55:59.157Z,14.30
2023-01-13T07:58:26.804Z,13.35
2023-01-13T08:00:54.784Z,14.70
2023-01-13T08:03:23.035Z,14.13
2023-01-13T08:05:50.531Z,14.35
2023-01-13T08:08:17.726Z,14.73
2023-01-13T08:10:45.168Z,14.63
2023-01-13T08:13:18.141Z,13.77
2023-01-13T08:15:47.998Z,15.18
2023-01-13T08:18:16.116Z,14.25
2023-01-13T08:20:46.935Z,14.52
2023-01-13T08:23:14.426Z,14.35
2023-01-13T08:25:41.541Z,14.15
2023-01-13T08:28:08.782Z,14.23
2023-01-13T08:30:35.957Z,15.52
2023-01-13T08:33:07.711Z,15.57
2023-01-13T08:35:39.045Z,15.60
2023-01-13T08:38:06.473Z,14.63
2023-01-13T08:40:33.639Z,15.00
2023-01-13T08:43:01.377Z,15.05
2023-01-13T08:45:28.449Z,15.57
2023-01-13T08:47:55.600Z,16.45
2023-01-13T08:50:22.767Z,16.08
2023-01-13T08:52:49.862Z,16.40
2023-01-13T08:55:17.211Z,16.23
2023-01-13T08:57:44.385Z,16.70
2023-01-13T09:00:13.115Z,17.77
2023-01-13T09:02:40.623Z,17.13
2023-01-13T09:05:08.413Z,16.20
2023-01-13T09:07:37.957Z,17.98
2023-01-13T09:10:07.355Z,16.38
2023-01-13T09:12:53.283Z,16.95
2023-01-13T09:15:21.581Z,16.48
2023-01-13T09:17:48.752Z,17.50
2023-01-13T09:20:16.132Z,16.42
2023-01-13T09:22:43.277Z,18.40
2023-01-13T09:25:10.552Z,17.27
2023-01-13T09:27:37.678Z,16.77
2023-01-13T09:30:06.162Z,16.95
2023-01-13T09:32:33.220Z,17.48
2023-01-13T09:35:00.459Z,18.05
2023-01-13T09:37:28.781Z,17.58
2023-01-13T09:39:56.399Z,19.48
2023-01-13T09:42:52.355Z,18.80
2023-01-13T09:45:23.342Z,19.35
2023-01-13T09:48:12.131Z,21.00
2023-01-13T09:50:58.590Z,21.83
2023-01-13T09:53:29.781Z,21.67
2023-01-13T09:55:56.946Z,22.63
2023-01-13T09:58:24.945Z,21.55
2023-01-13T10:01:20.614Z,22.25
2023-01-13T10:03:49.386Z,22.70
2023-01-13T10:06:16.608Z,23.52
2023-01-13T10:08:45.706Z,23.52
2023-01-13T10:11:38.408Z,22.15
2023-01-13T10:14:27.259Z,23.45
2023-01-13T10:17:17.880Z,22.88
2023-01-13T10:19:51.423Z,22.60
2023-01-13T10:22:37.672Z,24.13
2023-01-13T10:25:20.933Z,23.77
2023-01-13T10:27:50.732Z,23.20
2023-01-13T10:30:31.466Z,23.20
2023-01-13T10:33:01.127Z,23.35
2023-01-13T10:36:05.548Z,22.05
2023-01-13T10:38:35.471Z,23.88
2023-01-13T10:41:06.691Z,22.63
2023-01-13T10:43:33.753Z,22.67
2023-01-13T10:46:11.675Z,23.58
2023-01-13T10:48:41.094Z,23.95
2023-01-13T10:51:14.006Z,24.75
2023-01-13T10:53:50.198Z,22.88
2023-01-13T10:56:19.949Z,22.58
2023-01-13T10:58:47.105Z,24.95
2023-01-13T11:01:27.441Z,23.02
2023-01-13T11:03:55.300Z,23.88
2023-01-13T11:06:24.072Z,22.55
2023-01-13T11:08:55.153Z,22.42
2023-01-13T11:11:43.954Z,23.05
2023-01-13T11:14:33.427Z,23.50
2023-01-13T11:17:10.704Z,24.90
2023-01-13T11:19:43.419Z,23.83
2023-01-13T11:22:22.283Z,24.75
2023-01-13T11:25:01.503Z,24.10
2023-01-13T11:27:42.591Z,24.70
2023-01-13T11:30:32.728Z,26.45
2023-01-13T11:33:06.248Z,34.60
2023-01-13T11:35:40.553Z,34.25
2023-01-13T11:38:40.429Z,27.75
2023-01-13T11:41:41.595Z,25.83
2023-01-13T11:44:29.565Z,26.15
2023-01-13T11:46:56.860Z,26.83
2023-01-13T11:49:28.408Z,26.55
2023-01-13T11:52:16.448Z,26.25
2023-01-13T11:55:02.374Z,26.88
2023-01-13T11:57:35.485Z,27.33
2023-01-13T12:00:21.140Z,28.20
2023-01-13T12:02:58.427Z,31.77
2023-01-13T12:05:39.829Z,29.40
2023-01-13T12:08:26.048Z,27.88
2023-01-13T12:11:18.777Z,28.80
2023-01-13T12:14:27.221Z,25.58
2023-01-13T12:16:54.480Z,24.80
2023-01-13T12:19:30.831Z,25.80
2023-01-13T12:22:20.494Z,27.15
2023-01-13T12:25:12.116Z,24.73
2023-01-13T12:27:47.828Z,26.30
2023-01-13T12:30:14.887Z,25.17
2023-01-13T12:32:42.378Z,24.50
2023-01-13T12:35:21.354Z,26.08
2023-01-13T12:38:01.613Z,27.58
2023-01-13T12:40:38.623Z,28.38
2023-01-13T12:43:40.847Z,29.40
2023-01-13T12:46:21.055Z,28.40
2023-01-13T12:48:57.467Z,26.33
2023-01-13T12:51:36.637Z,26.90
2023-01-13T12:54:32.772Z,27.65
2023-01-13T12:57:00.434Z,27.70
2023-01-13T12:59:27.448Z,27.02
2023-01-13T13:02:13.066Z,26.75
2023-01-13T13:04:43.011Z,26.13
2023-01-13T13:07:17.033Z,27.45
2023-01-13T13:09:50.799Z,28.88
2023-01-13T13:13:01.585Z,33.20
2023-01-13T13:15:30.686Z,36.92
2023-01-13T13:18:28.254Z,37.33
2023-01-13T13:21:04.646Z,38.55
2023-01-13T13:23:50.121Z,39.47
2023-01-13T13:26:24.709Z,40.40
2023-01-13T13:29:29.106Z,42.55
2023-01-13T13:32:10.959Z,39.80
2023-01-13T13:34:56.612Z,39.33
2023-01-13T13:37:31.175Z,40.10
2023-01-13T13:40:17.101Z,36.33
2023-01-13T13:43:13.236Z,38.30
2023-01-13T13:46:09.182Z,32.92
2023-01-13T13:48:37.262Z,31.65
2023-01-13T13:51:37.881Z,31.42
2023-01-13T13:54:10.426Z,33.15
2023-01-13T13:56:42.092Z,34.38
2023-01-13T13:59:12.148Z,31.45
2023-01-13T14:01:43.014Z,30.73
2023-01-13T14:04:20.859Z,30.80
2023-01-13T14:07:04.849Z,29.67
2023-01-13T14:12:23.571Z,27.95
2023-01-13T14:14:51.600Z,31.90
2023-01-13T14:17:22.377Z,30.60
2023-01-13T14:19:56.498Z,32.83
2023-01-13T14:22:23.842Z,31.75
2023-01-13T14:24:55.602Z,31.15
2023-01-13T14:27:24.737Z,30.30
2023-01-13T14:29:54.402Z,31.52
2023-01-13T14:32:31.712Z,32.08
2023-01-13T14:34:59.103Z,32.90
2023-01-13T14:37:34.914Z,33.25
2023-01-13T14:40:02.395Z,33.33
2023-01-13T14:42:31.456Z,34.55
2023-01-13T14:44:58.671Z,31.42
2023-01-13T14:47:28.374Z,34.42
2023-01-13T14:50:03.762Z,31.70
2023-01-13T14:52:37.555Z,32.28
2023-01-13T14:57:33.422Z,31.55
2023-01-13T15:00:15.839Z,31.98
2023-01-13T15:02:58.035Z,33.38
2023-01-13T15:05:25.288Z,32.42
2023-01-13T15:08:11.532Z,45.25
2023-01-13T15:10:48.468Z,42.40
2023-01-13T15:13:33.391Z,94.35
2023-01-13T15:16:03.445Z,34.22
2023-01-13T15:18:30.955Z,32.33
2023-01-13T15:20:58.017Z,34.20
2023-01-13T15:23:25.087Z,33.30
2023-01-13T15:25:52.288Z,32.88
2023-01-13T15:28:25.501Z,33.65
2023-01-13T15:30:54.520Z,40.15
2023-01-13T15:33:22.624Z,39.88
2023-01-13T15:35:52.809Z,37.97
2023-01-13T15:38:22.256Z,36.97
2023-01-13T15:40:51.085Z,37.30
2023-01-13T15:43:39.074Z,37.92
2023-01-13T15:46:33.157Z,36.08
2023-01-13T15:49:09.809Z,35.95
2023-01-13T15:51:38.807Z,35.65
2023-01-13T15:54:07.651Z,34.58
2023-01-13T15:56:36.752Z,36.10
2023-01-13T15:59:05.501Z,37.38
2023-01-13T16:01:32.691Z,35.33
2023-01-13T16:03:59.877Z,35.85
2023-01-13T16:06:35.960Z,34.97
2023-01-13T16:09:04.429Z,38.60
2023-01-13T16:11:31.814Z,36.72
2023-01-13T16:13:59.625Z,41.30
2023-01-13T16:16:28.333Z,37.63
2023-01-13T16:18:56.010Z,38.38
2023-01-13T16:21:24.213Z,36.45
2023-01-13T16:23:51.612Z,38.40
2023-01-13T16:26:22.017Z,37.72
2023-01-13T16:28:50.512Z,41.03
2023-01-13T16:31:31.783Z,38.83
2023-01-13T16:34:00.460Z,38.03
2023-01-13T16:36:30.215Z,40.13
2023-01-13T16:38:57.552Z,41.42
2023-01-13T16:41:24.983Z,41.28
2023-01-13T16:43:52.797Z,39.20
2023-01-13T16:46:23.245Z,37.88
2023-01-13T16:48:53.016Z,37.65
2023-01-13T16:51:21.690Z,41.95
2023-01-13T16:53:49.220Z,41.85
2023-01-13T16:56:23.599Z,41.15
2023-01-13T16:58:52.311Z,41.03
2023-01-13T17:01:31.299Z,41.10
2023-01-13T17:03:59.111Z,42.70
2023-01-13T17:06:34.144Z,42.05
2023-01-13T17:09:14.570Z,41.47
2023-01-13T17:11:41.658Z,41.38
2023-01-13T17:14:19.157Z,43.17
2023-01-13T17:16:47.578Z,40.72
2023-01-13T17:19:14.860Z,41.22
2023-01-13T17:21:42.339Z,41.42
2023-01-13T17:24:10.694Z,41.35
2023-01-13T17:26:49.216Z,42.13
2023-01-13T17:29:20.620Z,42.50
2023-01-13T17:31:48.964Z,43.70
2023-01-13T17:34:16.175Z,45.00
2023-01-13T17:36:43.491Z,47.28
2023-01-13T17:39:19.076Z,46.15
2023-01-13T17:41:46.364Z,44.28
2023-01-13T17:44:18.027Z,45.92
2023-01-13T17:46:45.789Z,48.47
2023-01-13T17:49:14.192Z,45.75
2023-01-13T17:51:41.334Z,44.38
2023-01-13T17:54:12.294Z,49.95
2023-01-13T17:56:41.147Z,51.75
2023-01-13T17:59:10.606Z,48.58
2023-01-13T18:01:38.435Z,45.35
2023-01-13T18:04:06.920Z,46.55
2023-01-13T18:06:34.060Z,47.90
2023-01-13T18:09:01.390Z,46.83
2023-01-13T18:11:28.574Z,46.15
2023-01-13T18:14:00.122Z,48.10
2023-01-13T18:16:30.154Z,46.08
2023-01-13T18:19:18.432Z,49.70
2023-01-13T18:22:05.423Z,51.20
2023-01-13T18:24:51.856Z,51.63
2023-01-13T18:27:23.737Z,50.35
2023-01-13T18:29:55.732Z,54.25
2023-01-13T18:32:26.333Z,57.67
2023-01-13T18:35:04.748Z,54.63
2023-01-13T18:37:32.910Z,50.92
2023-01-13T18:39:59.972Z,49.58
2023-01-13T18:42:45.354Z,53.97
2023-01-13T18:45:12.420Z,52.78
2023-01-13T18:47:42.114Z,52.75
2023-01-13T18:50:09.839Z,53.28
2023-01-13T18:52:36.941Z,50.60
2023-01-13T18:55:04.235Z,50.20
2023-01-13T18:57:31.464Z,51.33
2023-01-13T18:59:58.553Z,50.63
2023-01-13T19:02:27.665Z,53.55
2023-01-13T19:04:55.022Z,54.42
2023-01-13T19:07:24.219Z,53.97
2023-01-13T19:09:51.409Z,58.75
2023-01-13T19:12:26.193Z,53.60
2023-01-13T19:14:57.606Z,56.53
2023-01-13T19:17:26.319Z,51.80
2023-01-13T19:19:55.567Z,53.45
2023-01-13T19:22:27.257Z,51.88
2023-01-13T19:24:54.542Z,50.00
2023-01-13T19:27:22.339Z,48.50
2023-01-13T19:29:52.330Z,48.28
2023-01-13T19:32:23.213Z,50.08
2023-01-13T19:34:51.157Z,48.25
2023-01-13T19:37:19.400Z,45.38
2023-01-13T19:39:46.809Z,43.67
2023-01-13T19:42:32.792Z,43.70
2023-01-13T19:45:18.683Z,45.42
2023-01-13T19:47:45.977Z,46.30
2023-01-13T19:50:14.224Z,44.03
2023-01-13T19:52:44.150Z,44.60
2023-01-13T19:55:12.352Z,43.72
2023-01-13T19:57:40.496Z,46.08
2023-01-13T20:00:08.761Z,42.60
2023-01-13T20:02:47.759Z,44.30
2023-01-13T20:05:25.624Z,43.67
2023-01-13T20:07:53.118Z,45.83
2023-01-13T20:10:22.427Z,46.45
2023-01-13T20:12:49.528Z,48.58
2023-01-13T20:15:16.730Z,49.85
2023-01-13T20:17:43.903Z,47.47
2023-01-13T20:20:11.803Z,45.35
2023-01-13T20:22:39.829Z,46.03
2023-01-13T20:25:08.714Z,45.67
2023-01-13T20:27:36.534Z,48.17
2023-01-13T20:30:05.003Z,46.38
2023-01-13T20:32:32.068Z,48.05
2023-01-13T20:34:59.139Z,49.42
2023-01-13T20:37:26.485Z,51.47
2023-01-13T20:39:54.582Z,49.95
2023-01-13T20:42:30.549Z,54.80
2023-01-13T20:45:01.129Z,51.67
2023-01-13T20:47:29.586Z,51.13
2023-01-13T20:49:56.974Z,54.35
2023-01-13T20:52:24.659Z,54.22
2023-01-13T20:54:51.902Z,53.03
2023-01-13T20:57:18.980Z,55.35
2023-01-13T20:59:46.218Z,52.83
2023-01-13T21:02:15.175Z,53.85
2023-01-13T21:04:42.860Z,50.72
2023-01-13T21:07:10.285Z,56.55
2023-01-13T21:09:37.773Z,53.38
2023-01-13T21:12:24.237Z,51.58
2023-01-13T21:15:09.605Z,51.35
2023-01-13T21:17:55.558Z,52.70
2023-01-13T21:20:22.797Z,56.75
2023-01-13T21:22:49.961Z,52.25
2023-01-13T21:25:18.559Z,50.90
2023-01-13T21:27:45.986Z,49.03
2023-01-13T21:30:18.015Z,48.65
2023-01-13T21:32:45.586Z,49.78
2023-01-13T21:35:14.129Z,48.70
2023-01-13T21:37:42.911Z,51.50
2023-01-13T21:40:13.043Z,50.80
2023-01-13T21:42:58.737Z,52.53
2023-01-13T21:45:44.267Z,48.55
2023-01-13T21:48:11.439Z,51.22
2023-01-13T21:50:38.999Z,52.78
2023-01-13T21:53:07.817Z,53.35
2023-01-13T21:55:36.557Z,49.83
2023-01-13T21:58:12.467Z,47.95
2023-01-13T22:00:41.919Z,49.67
2023-01-13T22:03:10.483Z,48.70
2023-01-13T22:05:38.555Z,48.33
2023-01-13T22:08:06.725Z,49.72
2023-01-13T22:10:34.302Z,51.15
2023-01-13T22:13:22.303Z,49.85
2023-01-13T22:15:49.534Z,49.88
2023-01-13T22:18:18.146Z,47.75
2023-01-13T22:20:45.734Z,48.22
2023-01-13T22:23:12.879Z,46.53
2023-01-13T22:25:39.999Z,44.50
2023-01-13T22:28:09.069Z,47.22
2023-01-13T22:30:36.460Z,46.33
2023-01-13T22:33:03.754Z,49.30
2023-01-13T22:35:30.869Z,47.67
2023-01-13T22:37:58.556Z,46.58
2023-01-13T22:40:25.934Z,47.72
2023-01-13T22:42:53.100Z,44.95
2023-01-13T22:45:20.232Z,44.88
2023-01-13T22:47:47.933Z,44.05
2023-01-13T22:50:17.483Z,49.45
2023-01-13T22:52:44.546Z,45.40
2023-01-13T22:55:11.636Z,43.42
2023-01-13T22:57:47.217Z,46.92
2023-01-13T23:00:18.761Z,44.67
2023-01-13T23:02:46.343Z,42.88
2023-01-13T23:05:13.905Z,41.13
2023-01-13T23:07:41.237Z,39.35
2023-01-13T23:10:09.231Z,42.05
2023-01-13T23:12:36.590Z,41.00
2023-01-13T23:15:04.245Z,41.83
2023-01-13T23:17:31.348Z,40.17
2023-01-13T23:19:58.560Z,38.42
2023-01-13T23:22:25.716Z,39.15
2023-01-13T23:24:52.808Z,39.10
2023-01-13T23:27:19.898Z,39.20
2023-01-13T23:29:46.987Z,38.25
2023-01-13T23:32:14.071Z,38.67
2023-01-13T23:34:41.154Z,38.47
2023-01-13T23:37:08.235Z,36.88
2023-01-13T23:39:35.339Z,37.28
2023-01-13T23:42:02.479Z,38.72
2023-01-13T23:44:29.608Z,39.30
2023-01-13T23:46:56.757Z,39.35
2023-01-13T23:49:24.093Z,37.38
2023-01-13T23:51:51.941Z,36.63
2023-01-13T23:54:19.168Z,38.67
2023-01-13T23:56:46.326Z,39.05
2023-01-13T23:59:13.435Z,37.85
